createdAt,value
2023-02-28T00:04:02.983Z,3.00
2023-02-28T00:09:04.695Z,3.00
2023-02-28T00:14:06.436Z,2.90
2023-02-28T00:19:08.251Z,2.80
2023-02-28T00:24:09.957Z,3.00
2023-02-28T00:29:11.923Z,3.00
2023-02-28T00:34:13.781Z,3.00
2023-02-28T00:39:16.193Z,3.00
2023-02-28T00:44:17.880Z,2.80
2023-02-28T00:49:19.721Z,2.70
2023-02-28T00:54:22.171Z,2.90
2023-02-28T00:59:23.903Z,3.00
2023-02-28T01:04:25.682Z,3.00
2023-02-28T01:09:27.436Z,2.90
2023-02-28T01:14:29.194Z,3.00
2023-02-28T01:19:30.906Z,2.90
2023-02-28T01:24:34.446Z,2.90
2023-02-28T01:29:36.249Z,3.00
2023-02-28T01:34:38.232Z,2.90
2023-02-28T01:39:39.961Z,3.00
2023-02-28T01:45:16.247Z,2.90
2023-02-28T01:50:23.524Z,3.00
2023-02-28T01:55:29.594Z,3.00
2023-02-28T02:00:32.191Z,3.00
2023-02-28T02:05:34.741Z,3.00
2023-02-28T02:10:50.228Z,3.00
2023-02-28T02:16:25.686Z,2.90
2023-02-28T02:21:30.651Z,3.00
2023-02-28T02:26:59.408Z,2.90
2023-02-28T02:32:25.982Z,3.00
2023-02-28T02:37:32.224Z,3.00
2023-02-28T02:42:51.680Z,2.90
2023-02-28T02:47:54.355Z,3.00
2023-02-28T02:52:59.806Z,2.90
2023-02-28T02:58:06.173Z,2.90
2023-02-28T03:03:10.340Z,2.90
2023-02-28T03:08:12.330Z,2.70
2023-02-28T03:13:35.426Z,2.70
2023-02-28T03:19:04.361Z,2.80
2023-02-28T03:24:28.255Z,2.90
2023-02-28T03:29:37.078Z,2.90
2023-02-28T03:34:44.285Z,2.90
2023-02-28T03:39:52.749Z,2.90
2023-02-28T03:45:01.793Z,2.90
2023-02-28T03:50:12.167Z,2.80
2023-02-28T03:55:16.754Z,2.80
2023-02-28T04:00:27.256Z,2.70
2023-02-28T04:05:30.391Z,2.60
2023-02-28T04:10:32.307Z,2.70
2023-02-28T04:15:34.008Z,2.70
2023-02-28T04:20:35.699Z,2.70
2023-02-28T04:25:37.347Z,2.70
2023-02-28T04:30:40.138Z,2.60
2023-02-28T04:35:41.801Z,2.50
2023-02-28T04:40:43.491Z,2.40
2023-02-28T04:45:45.151Z,2.20
2023-02-28T04:50:46.807Z,2.30
2023-02-28T04:55:48.564Z,2.40
2023-02-28T05:00:51.679Z,2.30
2023-02-28T05:05:53.369Z,2.30
2023-02-28T05:10:55.070Z,2.20
2023-02-28T05:15:57.277Z,2.20
2023-02-28T05:20:59.052Z,2.20
2023-02-28T05:26:00.784Z,2.00
2023-02-28T05:31:02.438Z,2.10
2023-02-28T05:36:05.154Z,2.10
2023-02-28T05:41:08.909Z,2.10
2023-02-28T05:46:12.096Z,2.10
2023-02-28T05:51:13.978Z,1.90
2023-02-28T05:56:15.707Z,1.90
2023-02-28T06:01:49.333Z,1.80
2023-02-28T06:06:51.715Z,1.80
2023-02-28T06:11:53.461Z,1.70
2023-02-28T06:16:56.747Z,1.70
2023-02-28T06:22:00.645Z,1.60
2023-02-28T06:27:06.033Z,1.30
2023-02-28T06:32:08.014Z,1.30
2023-02-28T06:37:09.676Z,1.40
2023-02-28T06:42:11.400Z,1.30
2023-02-28T06:47:13.093Z,1.40
2023-02-28T06:52:15.412Z,1.30
2023-02-28T06:57:17.106Z,1.50
2023-02-28T07:02:18.768Z,1.50
2023-02-28T07:07:21.171Z,1.70
2023-02-28T07:12:22.945Z,1.70
2023-02-28T07:17:24.683Z,1.80
2023-02-28T07:22:26.390Z,1.80
2023-02-28T07:27:28.136Z,1.90
2023-02-28T07:32:29.988Z,1.70
2023-02-28T07:37:37.596Z,1.80
2023-02-28T07:42:40.120Z,2.20
2023-02-28T07:47:43.209Z,2.40
2023-02-28T07:52:44.990Z,2.30
2023-02-28T07:57:46.652Z,2.50
2023-02-28T08:02:48.373Z,2.40
2023-02-28T08:07:50.849Z,2.80
2023-02-28T08:12:52.524Z,2.90
2023-02-28T08:17:54.285Z,3.50
2023-02-28T08:22:55.989Z,4.20
2023-02-28T08:27:57.673Z,4.60
2023-02-28T08:32:59.473Z,4.80
2023-02-28T08:38:01.170Z,5.10
2023-02-28T08:43:02.902Z,5.60
2023-02-28T08:48:04.921Z,5.60
2023-02-28T08:53:07.040Z,5.70
2023-02-28T08:58:08.777Z,5.50
2023-02-28T09:03:10.465Z,6.60
2023-02-28T09:08:12.116Z,6.90
2023-02-28T09:13:14.125Z,6.80
2023-02-28T09:18:15.886Z,7.90
2023-02-28T09:23:17.869Z,8.80
2023-02-28T09:28:20.320Z,9.00
2023-02-28T09:33:24.173Z,9.10
2023-02-28T09:38:25.968Z,9.30
2023-02-28T09:43:38.617Z,10.20
2023-02-28T09:48:45.360Z,10.80
2023-02-28T09:53:50.463Z,10.90
2023-02-28T09:59:02.997Z,11.90
2023-02-28T10:04:29.762Z,12.20
2023-02-28T10:09:33.767Z,12.30
2023-02-28T10:14:38.400Z,11.90
2023-02-28T10:20:12.609Z,12.60
2023-02-28T10:25:24.743Z,13.00
2023-02-28T10:30:27.093Z,13.90
2023-02-28T10:35:28.816Z,14.00
2023-02-28T10:40:36.503Z,14.90
2023-02-28T10:45:38.418Z,16.10
2023-02-28T10:50:54.452Z,16.10
2023-02-28T10:56:01.988Z,15.40
2023-02-28T11:01:03.801Z,15.40
2023-02-28T11:06:09.092Z,15.80
2023-02-28T11:11:10.839Z,13.60
2023-02-28T11:16:14.976Z,13.40
2023-02-28T11:21:27.098Z,12.90
2023-02-28T11:26:58.567Z,12.10
2023-02-28T11:32:14.430Z,11.20
2023-02-28T11:37:19.759Z,11.70
2023-02-28T11:42:48.073Z,11.50
2023-02-28T11:47:58.167Z,11.10
2023-02-28T11:53:35.445Z,10.50
2023-02-28T11:59:03.175Z,9.40
2023-02-28T12:04:39.093Z,8.00
2023-02-28T12:10:06.391Z,7.80
2023-02-28T12:15:23.133Z,7.20
2023-02-28T12:20:33.681Z,6.40
2023-02-28T12:25:58.288Z,6.60
2023-02-28T12:31:06.103Z,6.60
2023-02-28T12:36:13.794Z,6.50
2023-02-28T12:41:26.042Z,5.70
2023-02-28T12:46:37.867Z,5.90
2023-02-28T12:51:40.595Z,6.20
2023-02-28T12:57:11.483Z,6.20
2023-02-28T13:02:43.375Z,6.80
2023-02-28T13:08:08.146Z,7.00
2023-02-28T13:13:17.020Z,6.80
2023-02-28T13:18:40.561Z,7.00
2023-02-28T13:24:02.248Z,7.40
2023-02-28T13:29:17.202Z,8.00
2023-02-28T13:34:18.853Z,7.70
2023-02-28T13:39:36.367Z,7.50
2023-02-28T13:45:07.586Z,7.50
2023-02-28T13:50:22.568Z,7.90
2023-02-28T13:55:32.768Z,8.10
2023-02-28T14:00:46.868Z,7.90
2023-02-28T14:06:08.761Z,8.10
2023-02-28T14:11:27.096Z,8.30
2023-02-28T14:16:45.733Z,8.20
2023-02-28T14:22:22.276Z,7.60
2023-02-28T14:27:49.023Z,7.60
2023-02-28T14:33:24.582Z,7.60
2023-02-28T14:38:34.090Z,7.70
2023-02-28T14:43:35.861Z,7.60
2023-02-28T14:48:38.912Z,7.80
2023-02-28T14:53:41.027Z,8.50
2023-02-28T14:58:52.907Z,9.00
2023-02-28T15:04:00.275Z,9.60
2023-02-28T15:09:17.085Z,9.40
2023-02-28T15:14:22.085Z,8.70
2023-02-28T15:19:28.527Z,8.60
2023-02-28T15:24:59.947Z,8.30
2023-02-28T15:30:07.460Z,8.00
2023-02-28T15:35:39.180Z,7.60
2023-02-28T15:40:55.560Z,7.50
2023-02-28T15:46:23.519Z,7.50
2023-02-28T15:51:35.482Z,6.90
2023-02-28T15:56:44.799Z,6.10
2023-02-28T16:01:46.967Z,5.80
2023-02-28T16:07:00.961Z,5.60
2023-02-28T16:12:04.199Z,5.60
2023-02-28T16:17:22.006Z,5.50
2023-02-28T16:22:24.036Z,5.40
2023-02-28T16:27:33.539Z,5.30
2023-02-28T16:32:37.640Z,5.40
2023-02-28T16:37:39.383Z,5.70
2023-02-28T16:42:41.433Z,5.70
2023-02-28T16:47:43.157Z,5.50
2023-02-28T16:52:44.939Z,5.50
2023-02-28T16:57:55.196Z,5.50
2023-02-28T17:02:57.598Z,5.50
2023-02-28T17:07:59.346Z,5.30
2023-02-28T17:13:14.230Z,5.20
2023-02-28T17:18:22.210Z,5.00
2023-02-28T17:23:23.948Z,4.90
2023-02-28T17:28:25.866Z,4.80
2023-02-28T17:33:27.607Z,4.60
2023-02-28T17:38:29.334Z,4.50
2023-02-28T17:43:31.040Z,4.40
2023-02-28T17:48:34.003Z,4.20
2023-02-28T17:53:35.703Z,4.20
2023-02-28T17:58:37.401Z,4.00
2023-02-28T18:03:40.239Z,3.80
2023-02-28T18:08:42.364Z,3.60
2023-02-28T18:13:48.788Z,3.10
2023-02-28T18:18:50.699Z,3.00
2023-02-28T18:23:53.145Z,2.80
2023-02-28T18:28:54.853Z,2.70
2023-02-28T18:33:56.528Z,2.50
2023-02-28T18:38:58.996Z,2.50
2023-02-28T18:44:07.703Z,2.10
2023-02-28T18:49:15.657Z,1.70
2023-02-28T18:54:17.697Z,1.80
2023-02-28T18:59:19.420Z,1.60
2023-02-28T19:04:21.159Z,1.60
2023-02-28T19:09:22.876Z,1.50
2023-02-28T19:14:24.526Z,1.10
2023-02-28T19:19:26.286Z,1.10
2023-02-28T19:24:28.059Z,1.40
2023-02-28T19:29:29.969Z,1.60
2023-02-28T19:34:31.753Z,1.80
2023-02-28T19:39:40.997Z,1.60
2023-02-28T19:44:45.041Z,1.40
2023-02-28T19:49:46.847Z,1.50
2023-02-28T19:54:48.719Z,1.60
2023-02-28T19:59:51.251Z,1.60
2023-02-28T20:04:54.940Z,1.40
2023-02-28T20:09:56.663Z,1.40
2023-02-28T20:14:59.810Z,1.40
2023-02-28T20:20:01.669Z,1.40
2023-02-28T20:25:04.304Z,1.40
2023-02-28T20:30:06.690Z,1.40
2023-02-28T20:35:11.564Z,1.40
2023-02-28T20:40:13.989Z,1.40
2023-02-28T20:45:15.765Z,1.20
2023-02-28T20:50:17.821Z,1.20
2023-02-28T20:55:20.383Z,1.20
2023-02-28T21:00:22.648Z,1.30
2023-02-28T21:05:24.544Z,1.20
2023-02-28T21:10:26.230Z,1.10
2023-02-28T21:15:27.883Z,1.00
2023-02-28T21:20:29.668Z,1.00
2023-02-28T21:25:33.184Z,1.00
2023-02-28T21:30:36.425Z,1.10
2023-02-28T21:35:38.096Z,1.00
2023-02-28T21:40:39.807Z,1.00
2023-02-28T21:45:41.495Z,1.00
2023-02-28T21:50:43.216Z,0.90
2023-02-28T21:55:44.905Z,1.10
2023-02-28T22:00:46.662Z,0.90
2023-02-28T22:05:48.342Z,0.90
2023-02-28T22:10:50.034Z,0.80
2023-02-28T22:15:51.710Z,0.80
2023-02-28T22:20:56.879Z,0.80
2023-02-28T22:26:01.948Z,0.50
2023-02-28T22:31:14.789Z,0.40
2023-02-28T22:36:18.304Z,0.20
2023-02-28T22:41:22.762Z,-0.10
2023-02-28T22:46:27.030Z,-0.10
2023-02-28T22:51:30.556Z,0.10
2023-02-28T22:56:32.777Z,0.40
2023-02-28T23:01:35.062Z,0.20
2023-02-28T23:06:42.069Z,0.30
2023-02-28T23:11:46.709Z,0.20
2023-02-28T23:16:51.062Z,0.20
2023-02-28T23:21:53.585Z,0.20
2023-02-28T23:26:57.780Z,0.10
2023-02-28T23:31:59.642Z,0.10
2023-02-28T23:37:02.472Z,0.00
2023-02-28T23:42:04.223Z,-0.10
2023-02-28T23:47:06.442Z,0.00
2023-02-28T23:52:08.332Z,-0.10
2023-02-28T23:57:10.030Z,0.00
